Time;durP1;ratioP1;P1;durP2;ratioP2;P2;SDS_P1;SDS_P2;PMS_P1;PMS_P2;Temp;Humidity;BMP_temperature;BMP_pressure;BME280_temperature;BME280_humidity;BME280_pressure;Samples;Min_cycle;Max_cycle;Signal;HPM_P1;HPM_P2
2021/01/29 05:02:45;;;;;;;1.42;1.20;;;0.70;99.90;;;;;;5078877;23;20255;-72
2021/01/29 05:05:47;;;;;;;3.25;1.40;;;0.70;99.90;;;;;;4954858;28;20205;-72
2021/01/29 05:08:40;;;;;;;1.40;1.35;;;0.70;99.90;;;;;;4955318;28;20307;-72
2021/01/29 05:11:32;;;;;;;2.08;1.98;;;0.70;99.90;;;;;;4955194;28;20229;-72
2021/01/29 05:14:19;;;;;;;1.40;1.40;;;0.70;99.90;;;;;;4948480;28;20213;-72
2021/01/29 05:17:05;;;;;;;1.50;1.50;;;0.70;99.90;;;;;;4935958;29;20241;-72
2021/01/29 05:20:01;;;;;;;1.67;1.67;;;0.70;99.90;;;;;;4946196;28;20240;-72
2021/01/29 05:22:53;;;;;;;5.78;1.60;;;0.70;99.90;;;;;;4916556;29;20226;-72
2021/01/29 05:25:53;;;;;;;1.33;1.23;;;0.70;99.90;;;;;;4922948;29;20555;-72
2021/01/29 05:28:43;;;;;;;2.03;1.80;;;0.70;99.90;;;;;;4936313;29;20233;-72
2021/01/29 05:31:27;;;;;;;2.00;1.90;;;0.70;99.90;;;;;;4944130;28;20255;-72
2021/01/29 05:34:23;;;;;;;2.60;2.42;;;0.70;99.90;;;;;;4951156;28;20269;-72
2021/01/29 05:37:23;;;;;;;1.58;1.48;;;0.70;99.90;;;;;;4935171;29;20292;-72
2021/01/29 05:39:58;;;;;;;2.22;2.03;;;0.70;99.90;;;;;;4949288;29;20217;-72
2021/01/29 05:42:41;;;;;;;1.98;1.92;;;0.70;99.90;;;;;;4952441;28;20697;-72
2021/01/29 05:45:27;;;;;;;2.78;2.08;;;0.70;99.90;;;;;;4938967;28;20214;-72
2021/01/29 05:48:14;;;;;;;2.00;1.95;;;0.60;99.90;;;;;;4935350;29;20309;-72
2021/01/29 05:50:55;;;;;;;2.03;1.90;;;0.60;99.90;;;;;;4917307;29;20591;-72
2021/01/29 05:54:09;;;;;;;1.92;1.85;;;0.70;99.90;;;;;;4935346;29;20253;-72
2021/01/29 05:56:54;;;;;;;1.88;1.88;;;0.70;99.90;;;;;;4928211;28;20230;-72
2021/01/29 05:59:38;;;;;;;2.72;2.63;;;0.60;99.90;;;;;;4938907;29;20237;-72
2021/01/29 06:02:31;;;;;;;2.30;2.10;;;0.70;99.90;;;;;;4931117;29;20225;-72
2021/01/29 06:05:22;;;;;;;2.47;1.92;;;0.70;99.90;;;;;;4928553;29;20489;-71
2021/01/29 06:08:22;;;;;;;6.45;2.75;;;0.60;99.90;;;;;;4942333;28;20274;-71
2021/01/29 06:11:14;;;;;;;6.88;2.50;;;0.70;99.90;;;;;;4935172;28;20585;-71
2021/01/29 06:14:14;;;;;;;1.67;1.33;;;0.70;99.90;;;;;;4931712;29;20205;-71
2021/01/29 06:17:11;;;;;;;2.25;2.10;;;0.70;99.90;;;;;;4949823;28;20218;-72
2021/01/29 06:20:22;;;;;;;2.92;1.77;;;0.70;99.90;;;;;;4942247;29;20673;-71
2021/01/29 06:23:12;;;;;;;3.45;2.33;;;0.70;99.90;;;;;;4906612;29;20217;-71
2021/01/29 06:26:30;;;;;;;2.10;2.10;;;0.70;99.90;;;;;;4935008;29;20202;-71
2021/01/29 06:29:25;;;;;;;4.28;1.73;;;0.70;99.90;;;;;;4894257;29;20267;-71
2021/01/29 06:32:33;;;;;;;2.05;1.95;;;0.70;99.90;;;;;;4874307;29;20227;-74
2021/01/29 06:35:38;;;;;;;2.33;2.10;;;0.70;99.90;;;;;;4913241;29;20229;-73
2021/01/29 06:38:29;;;;;;;1.90;1.90;;;0.70;99.90;;;;;;4930496;29;20657;-74
2021/01/29 06:41:12;;;;;;;2.40;1.95;;;0.70;99.90;;;;;;4938844;28;20691;-74
2021/01/29 06:43:52;;;;;;;2.20;2.10;;;0.70;99.90;;;;;;4939751;29;20245;-72
2021/01/29 06:46:52;;;;;;;2.50;2.30;;;0.70;99.90;;;;;;4952495;29;20637;-73
2021/01/29 06:49:40;;;;;;;7.32;2.40;;;0.70;99.90;;;;;;4942601;28;20261;-72
2021/01/29 06:52:37;;;;;;;1.42;1.42;;;0.70;99.90;;;;;;4935138;29;20222;-72
2021/01/29 06:55:15;;;;;;;3.60;3.22;;;0.70;99.90;;;;;;4927655;29;20254;-72
2021/01/29 06:58:05;;;;;;;2.47;1.42;;;0.80;99.90;;;;;;4915641;29;20659;-72
2021/01/29 07:01:03;;;;;;;5.45;2.22;;;0.70;99.90;;;;;;4915590;29;20317;-72
2021/01/29 07:04:09;;;;;;;2.13;2.03;;;0.70;99.90;;;;;;4915100;29;20659;-72
2021/01/29 07:06:52;;;;;;;1.25;1.25;;;0.70;99.90;;;;;;4930673;28;20229;-72
2021/01/29 07:09:42;;;;;;;2.35;2.20;;;0.70;99.90;;;;;;4935148;29;20205;-72
2021/01/29 07:12:40;;;;;;;4.55;1.70;;;0.70;99.90;;;;;;4934402;29;20234;-72
2021/01/29 07:15:17;;;;;;;1.88;1.77;;;0.70;99.90;;;;;;4937876;29;20213;-73
2021/01/29 07:18:11;;;;;;;2.00;2.00;;;0.70;99.90;;;;;;4947466;28;20284;-73
2021/01/29 07:20:48;;;;;;;2.05;2.05;;;0.70;99.90;;;;;;4935148;29;20233;-74
2021/01/29 07:23:51;;;;;;;1.80;1.70;;;0.80;99.90;;;;;;4934852;29;20216;-72
2021/01/29 07:26:27;;;;;;;2.30;2.10;;;0.80;99.90;;;;;;4938779;28;20273;-72
2021/01/29 07:29:10;;;;;;;2.20;2.10;;;0.80;99.90;;;;;;4936289;29;20220;-74
2021/01/29 07:31:44;;;;;;;1.48;1.38;;;0.70;99.90;;;;;;4937776;29;20222;-73
2021/01/29 07:34:23;;;;;;;1.45;1.45;;;0.70;99.90;;;;;;4938358;29;20209;-73
2021/01/29 07:37:19;;;;;;;1.98;1.83;;;0.70;99.90;;;;;;4918975;29;20559;-73
2021/01/29 07:40:08;;;;;;;2.05;1.85;;;0.70;99.90;;;;;;4918988;29;20222;-72
2021/01/29 07:43:05;;;;;;;2.60;2.50;;;0.70;99.90;;;;;;4935658;29;20198;-72
2021/01/29 07:45:44;;;;;;;1.48;1.42;;;0.70;99.90;;;;;;4941699;29;20213;-72
2021/01/29 07:48:41;;;;;;;1.90;1.80;;;0.70;99.90;;;;;;4931862;29;20526;-70
2021/01/29 07:51:11;;;;;;;1.80;1.70;;;0.80;99.90;;;;;;4946149;28;20214;-72
2021/01/29 07:53:49;;;;;;;1.73;1.65;;;0.80;99.90;;;;;;4928054;29;20211;-69
2021/01/29 07:56:35;;;;;;;3.90;0.98;;;0.70;99.90;;;;;;4922827;29;20237;-73
2021/01/29 07:59:14;;;;;;;2.55;2.40;;;0.70;99.90;;;;;;4933418;29;20212;-71
2021/01/29 08:01:50;;;;;;;1.88;1.77;;;0.70;99.90;;;;;;4940706;28;20233;-70
2021/01/29 08:04:37;;;;;;;5.70;1.42;;;0.80;99.90;;;;;;4939987;29;20219;-70
2021/01/29 08:07:13;;;;;;;3.83;2.05;;;0.80;99.90;;;;;;4922571;29;20637;-70
2021/01/29 08:09:43;;;;;;;2.08;1.98;;;0.80;99.90;;;;;;4932429;29;20206;-70
2021/01/29 08:12:12;;;;;;;1.90;1.80;;;0.80;99.90;;;;;;4932507;29;20230;-70
2021/01/29 08:15:11;;;;;;;2.30;2.20;;;0.90;99.90;;;;;;4940378;29;20207;-70
2021/01/29 08:17:58;;;;;;;1.20;1.20;;;0.80;99.90;;;;;;4928653;29;20221;-70
2021/01/29 08:20:56;;;;;;;1.60;1.50;;;0.80;99.90;;;;;;4936546;29;20220;-70
2021/01/29 08:23:30;;;;;;;7.88;2.70;;;0.90;99.90;;;;;;4936616;29;20202;-70
2021/01/29 08:26:32;;;;;;;3.28;2.30;;;0.80;99.90;;;;;;4935683;28;20212;-70
2021/01/29 08:29:35;;;;;;;2.50;2.30;;;0.90;99.90;;;;;;4929217;29;20228;-70
2021/01/29 08:32:19;;;;;;;0.75;0.75;;;0.90;99.90;;;;;;4912604;29;20229;-70
2021/01/29 08:35:10;;;;;;;2.95;2.40;;;0.90;99.90;;;;;;4944643;29;20220;-70
2021/01/29 08:37:42;;;;;;;1.75;1.65;;;0.90;99.90;;;;;;4951475;28;20315;-70
2021/01/29 08:40:26;;;;;;;1.73;1.63;;;0.90;99.90;;;;;;4916063;29;20214;-70
2021/01/29 08:43:26;;;;;;;1.60;1.35;;;0.90;99.90;;;;;;4920978;29;20236;-71
2021/01/29 08:46:01;;;;;;;1.85;1.75;;;0.90;99.90;;;;;;4946920;29;20198;-70
2021/01/29 08:48:39;;;;;;;1.50;1.50;;;0.90;99.90;;;;;;4936663;29;20693;-70
2021/01/29 08:51:20;;;;;;;2.08;1.90;;;0.90;99.90;;;;;;4935522;29;20302;-70
2021/01/29 08:54:29;;;;;;;1.40;1.40;;;1.00;99.90;;;;;;4935644;29;20267;-70
2021/01/29 08:57:04;;;;;;;2.47;2.28;;;1.00;99.90;;;;;;4935672;29;20296;-69
2021/01/29 08:59:34;;;;;;;0.98;0.98;;;1.00;99.90;;;;;;4936000;29;20213;-70
2021/01/29 09:02:09;;;;;;;1.80;1.70;;;1.00;99.90;;;;;;4934904;29;20245;-70
2021/01/29 09:04:41;;;;;;;2.50;2.30;;;1.00;99.90;;;;;;4935953;28;20239;-70
2021/01/29 09:07:16;;;;;;;2.30;2.13;;;1.00;99.90;;;;;;4944922;29;20213;-70
2021/01/29 09:09:42;;;;;;;2.33;2.22;;;1.00;99.90;;;;;;4936766;28;20210;-70
2021/01/29 09:12:16;;;;;;;2.00;2.00;;;1.00;99.90;;;;;;4935422;29;20313;-70
2021/01/29 09:14:50;;;;;;;2.95;2.75;;;1.00;99.90;;;;;;4941346;29;20210;-69
2021/01/29 09:17:20;;;;;;;1.48;1.38;;;1.00;99.90;;;;;;4936429;29;20242;-69
2021/01/29 09:19:55;;;;;;;2.25;2.15;;;1.10;99.90;;;;;;4938988;28;20231;-69
2021/01/29 09:22:26;;;;;;;2.90;1.90;;;1.10;99.90;;;;;;4935622;29;20237;-70
2021/01/29 09:25:00;;;;;;;3.50;3.15;;;1.10;99.90;;;;;;4935181;29;20289;-70
2021/01/29 09:27:53;;;;;;;1.98;1.88;;;1.00;99.90;;;;;;4926334;29;20201;-70
2021/01/29 09:30:27;;;;;;;3.00;2.80;;;1.10;99.90;;;;;;4925887;29;20563;-69
2021/01/29 09:33:00;;;;;;;1.63;1.55;;;1.10;99.90;;;;;;4938408;29;20609;-69
2021/01/29 09:35:35;;;;;;;2.05;1.00;;;1.10;99.90;;;;;;4953388;29;20526;-71
2021/01/29 09:38:02;;;;;;;2.00;1.90;;;1.10;99.90;;;;;;4940880;28;20265;-71
2021/01/29 09:40:33;;;;;;;2.67;2.40;;;1.10;99.90;;;;;;4920474;29;20226;-72
2021/01/29 09:43:11;;;;;;;2.75;2.55;;;1.10;99.90;;;;;;4923981;29;20229;-71
2021/01/29 09:45:39;;;;;;;1.67;1.58;;;1.20;99.90;;;;;;4917335;29;20221;-73
2021/01/29 09:48:11;;;;;;;1.75;1.65;;;1.20;99.90;;;;;;4934774;29;20304;-74
2021/01/29 09:50:38;;;;;;;1.88;1.77;;;1.20;99.90;;;;;;4955313;28;20728;-73
2021/01/29 09:53:27;;;;;;;2.72;2.53;;;1.20;99.90;;;;;;4948429;28;20202;-71
2021/01/29 09:56:02;;;;;;;1.98;1.77;;;1.20;99.90;;;;;;4933324;28;20228;-72
2021/01/29 09:59:01;;;;;;;1.15;1.15;;;1.20;99.90;;;;;;4941714;29;20638;-73
2021/01/29 10:01:35;;;;;;;1.75;1.65;;;1.20;99.90;;;;;;4955071;28;20239;-73
2021/01/29 10:04:06;;;;;;;2.13;1.67;;;1.20;99.90;;;;;;4931741;28;20210;-73
2021/01/29 10:06:36;;;;;;;1.27;1.27;;;1.30;99.90;;;;;;4936701;29;20232;-72
2021/01/29 10:09:12;;;;;;;2.20;2.00;;;1.20;99.90;;;;;;4940456;29;20208;-73
2021/01/29 10:11:44;;;;;;;2.53;2.10;;;1.30;99.90;;;;;;4919591;28;20226;-71
2021/01/29 10:14:16;;;;;;;1.85;1.50;;;1.40;99.90;;;;;;4932415;29;20269;-71
2021/01/29 10:16:52;;;;;;;0.75;0.75;;;1.40;99.90;;;;;;4946660;29;20221;-71
2021/01/29 10:19:28;;;;;;;1.67;1.58;;;1.40;99.90;;;;;;4947239;28;20213;-71
2021/01/29 10:22:24;;;;;;;1.60;1.50;;;1.40;99.90;;;;;;4935606;29;20229;-71
2021/01/29 10:24:58;;;;;;;1.98;1.88;;;1.50;99.90;;;;;;4938249;28;20241;-71
2021/01/29 10:27:33;;;;;;;1.70;1.70;;;1.50;99.90;;;;;;4934614;29;20264;-71
2021/01/29 10:30:06;;;;;;;1.83;1.73;;;1.60;99.90;;;;;;4948602;29;20209;-71
2021/01/29 10:32:36;;;;;;;1.63;1.55;;;1.60;99.90;;;;;;4949483;28;20208;-71
2021/01/29 10:35:09;;;;;;;1.48;1.48;;;1.60;99.90;;;;;;4948214;28;20221;-71
2021/01/29 10:37:41;;;;;;;1.90;1.90;;;1.70;99.90;;;;;;4945274;28;20236;-71
2021/01/29 10:40:22;;;;;;;0.80;0.80;;;1.70;99.90;;;;;;4927945;29;20213;-69
2021/01/29 10:42:56;;;;;;;1.23;1.23;;;1.70;99.90;;;;;;4929241;29;20210;-70
2021/01/29 10:45:33;;;;;;;1.75;1.10;;;1.80;99.90;;;;;;4932678;28;20224;-70
2021/01/29 10:48:09;;;;;;;3.95;1.58;;;1.80;99.90;;;;;;4934783;29;20210;-70
2021/01/29 10:50:46;;;;;;;1.95;1.58;;;1.80;99.90;;;;;;4931319;29;20255;-70
2021/01/29 10:53:17;;;;;;;1.10;1.10;;;1.90;99.90;;;;;;4948795;29;20205;-70
2021/01/29 10:55:53;;;;;;;1.10;1.10;;;1.90;99.90;;;;;;4938223;28;20214;-70
2021/01/29 10:58:34;;;;;;;1.30;1.30;;;1.90;99.90;;;;;;4933432;29;20224;-70
2021/01/29 11:01:01;;;;;;;2.20;1.60;;;1.80;99.90;;;;;;4916794;29;20293;-69
2021/01/29 11:03:46;;;;;;;1.60;1.60;;;1.90;99.90;;;;;;4951180;28;20244;-69
2021/01/29 11:06:18;;;;;;;2.20;2.10;;;1.90;99.90;;;;;;4926672;28;20199;-69
2021/01/29 11:08:47;;;;;;;2.75;2.55;;;1.90;99.90;;;;;;4921396;29;20251;-69
2021/01/29 11:11:21;;;;;;;2.30;2.13;;;1.90;99.90;;;;;;4938331;29;20323;-68
2021/01/29 11:14:03;;;;;;;1.98;1.10;;;1.90;99.90;;;;;;4926628;28;20281;-69
2021/01/29 11:16:41;;;;;;;0.50;0.50;;;1.80;99.90;;;;;;4936974;29;20301;-69
2021/01/29 11:19:18;;;;;;;1.20;1.20;;;1.80;99.90;;;;;;4939643;29;20274;-69
2021/01/29 11:21:55;;;;;;;1.02;1.02;;;1.80;99.90;;;;;;4939478;29;20276;-69
2021/01/29 11:24:30;;;;;;;3.03;1.42;;;1.90;99.90;;;;;;4942158;28;20278;-69
2021/01/29 11:27:04;;;;;;;1.80;1.70;;;1.90;99.90;;;;;;4934745;29;20193;-69
2021/01/29 11:29:40;;;;;;;1.27;0.90;;;1.90;99.90;;;;;;4956308;28;20548;-69
2021/01/29 11:32:24;;;;;;;1.63;1.63;;;2.00;99.90;;;;;;4937406;29;20236;-69
2021/01/29 11:34:56;;;;;;;1.00;1.00;;;1.90;99.90;;;;;;4930758;28;20298;-69
2021/01/29 11:37:28;;;;;;;1.13;1.13;;;2.00;99.90;;;;;;4926023;29;20682;-70
2021/01/29 11:40:01;;;;;;;1.27;1.27;;;2.00;99.90;;;;;;4936853;29;20267;-70
2021/01/29 11:42:35;;;;;;;1.15;1.15;;;2.00;99.90;;;;;;4920898;29;20258;-69
2021/01/29 11:45:06;;;;;;;1.48;1.30;;;2.00;99.90;;;;;;4930762;29;20545;-70
2021/01/29 11:47:39;;;;;;;1.10;1.10;;;2.10;99.90;;;;;;4958355;28;20190;-70
2021/01/29 11:50:18;;;;;;;1.83;1.73;;;2.10;99.90;;;;;;4942229;29;20213;-70
2021/01/29 11:52:53;;;;;;;3.95;0.88;;;2.00;99.90;;;;;;4956214;28;20201;-70
2021/01/29 11:55:27;;;;;;;3.65;1.40;;;2.00;99.90;;;;;;4953857;28;20550;-70
2021/01/29 11:58:06;;;;;;;2.38;1.05;;;2.00;99.90;;;;;;4931728;29;20218;-70
2021/01/29 12:00:37;;;;;;;0.77;0.77;;;2.00;99.90;;;;;;4944831;28;20236;-70
2021/01/29 12:03:15;;;;;;;3.90;1.60;;;2.00;99.90;;;;;;4939728;28;20206;-70
2021/01/29 12:05:50;;;;;;;1.17;1.08;;;2.00;99.90;;;;;;4946927;28;20213;-70
2021/01/29 12:08:28;;;;;;;1.10;1.10;;;2.00;99.90;;;;;;4926499;29;20213;-69
2021/01/29 12:11:05;;;;;;;1.45;1.45;;;2.00;99.90;;;;;;4946460;28;20236;-69
2021/01/29 12:13:37;;;;;;;2.63;2.50;;;2.00;99.90;;;;;;4945721;28;20213;-68
2021/01/29 12:16:10;;;;;;;3.28;2.47;;;2.00;99.90;;;;;;4948669;28;20222;-68
2021/01/29 12:18:37;;;;;;;1.50;1.50;;;2.00;99.90;;;;;;4956447;29;20212;-68
2021/01/29 12:21:08;;;;;;;2.05;1.95;;;2.00;99.90;;;;;;4944174;28;20302;-68
2021/01/29 12:23:43;;;;;;;2.22;2.13;;;1.90;99.90;;;;;;4942297;29;20694;-68
2021/01/29 12:26:17;;;;;;;1.35;1.35;;;1.80;99.90;;;;;;4937126;29;20206;-68
2021/01/29 12:29:01;;;;;;;1.58;1.48;;;1.80;99.90;;;;;;4931108;28;20890;-68
2021/01/29 12:31:38;;;;;;;1.95;1.60;;;1.80;99.90;;;;;;4937029;29;20284;-68
2021/01/29 12:34:08;;;;;;;0.80;0.80;;;1.80;99.90;;;;;;4937564;29;20557;-68
2021/01/29 12:36:37;;;;;;;0.93;0.93;;;1.70;99.90;;;;;;4939510;29;20225;-68
2021/01/29 12:39:12;;;;;;;1.47;1.47;;;1.70;99.90;;;;;;4954736;28;20455;-68
2021/01/29 12:41:44;;;;;;;1.30;1.30;;;1.70;99.90;;;;;;4942317;28;20511;-68
2021/01/29 12:44:28;;;;;;;1.15;1.10;;;1.60;99.90;;;;;;4952945;29;20240;-68
2021/01/29 12:47:01;;;;;;;1.05;1.05;;;1.50;99.90;;;;;;4953291;28;20539;-67
2021/01/29 12:49:37;;;;;;;2.70;1.33;;;1.50;99.90;;;;;;4936875;29;20217;-69
2021/01/29 12:52:08;;;;;;;1.48;1.35;;;1.50;99.90;;;;;;4937315;29;20665;-68
2021/01/29 12:54:45;;;;;;;1.25;0.95;;;1.50;99.90;;;;;;4931118;28;20217;-68
2021/01/29 12:57:13;;;;;;;1.30;1.08;;;1.40;99.90;;;;;;4944977;29;20630;-68
2021/01/29 12:59:47;;;;;;;1.95;1.10;;;1.40;99.90;;;;;;4938566;28;20560;-69
2021/01/29 13:02:43;;;;;;;1.63;1.35;;;1.40;99.90;;;;;;4937926;29;20295;-69
2021/01/29 13:05:23;;;;;;;1.80;1.75;;;1.30;99.90;;;;;;4955843;28;20213;-68
2021/01/29 13:08:08;;;;;;;1.75;1.73;;;1.20;99.90;;;;;;4938814;28;20213;-68
2021/01/29 13:10:41;;;;;;;1.58;1.58;;;1.10;99.90;;;;;;4935570;29;20234;-68
2021/01/29 13:13:20;;;;;;;2.50;2.30;;;1.10;99.90;;;;;;4951335;28;20202;-69
2021/01/29 13:16:05;;;;;;;2.50;2.28;;;1.00;99.90;;;;;;4951529;28;20571;-68
2021/01/29 13:18:51;;;;;;;3.55;2.10;;;1.00;99.90;;;;;;4935940;29;20190;-68
2021/01/29 13:21:25;;;;;;;2.42;2.22;;;0.90;99.90;;;;;;4940347;29;20225;-68
2021/01/29 13:23:54;;;;;;;3.33;1.90;;;0.90;99.90;;;;;;4936094;28;20214;-69
2021/01/29 13:26:33;;;;;;;1.67;1.67;;;0.90;99.90;;;;;;4941313;28;20205;-69
2021/01/29 13:29:01;;;;;;;2.00;1.75;;;0.80;99.90;;;;;;4954139;28;20296;-69
2021/01/29 13:31:32;;;;;;;1.48;1.30;;;0.80;99.90;;;;;;4935810;29;20607;-70
2021/01/29 13:34:03;;;;;;;1.05;1.05;;;0.80;99.90;;;;;;4935467;29;20209;-69
2021/01/29 13:36:32;;;;;;;4.25;2.25;;;0.70;99.90;;;;;;4916516;29;20239;-69
2021/01/29 13:39:10;;;;;;;1.30;1.20;;;0.70;99.90;;;;;;4919580;29;20212;-70
2021/01/29 13:41:46;;;;;;;2.65;1.80;;;0.60;99.90;;;;;;4934245;28;20545;-69
2021/01/29 13:44:30;;;;;;;2.53;2.25;;;0.60;99.90;;;;;;4938518;29;20312;-69
2021/01/29 13:46:56;;;;;;;5.53;2.15;;;0.60;99.90;;;;;;4956199;28;20233;-72
2021/01/29 13:49:27;;;;;;;2.47;2.05;;;0.60;99.90;;;;;;4949173;28;20225;-70
2021/01/29 13:51:54;;;;;;;4.43;1.92;;;0.50;99.90;;;;;;4942173;28;20285;-72
2021/01/29 13:54:30;;;;;;;2.17;2.13;;;0.50;99.90;;;;;;4951772;29;20209;-71
2021/01/29 13:57:05;;;;;;;1.80;1.70;;;0.50;99.90;;;;;;4958862;28;20239;-71
2021/01/29 13:59:38;;;;;;;1.52;1.52;;;0.50;99.90;;;;;;4950266;29;20200;-72
2021/01/29 14:02:27;;;;;;;1.77;1.67;;;0.50;99.90;;;;;;4957508;28;20287;-71
2021/01/29 14:04:59;;;;;;;1.20;1.20;;;0.50;99.90;;;;;;4947798;28;20640;-72
2021/01/29 14:07:25;;;;;;;2.10;1.90;;;0.40;99.90;;;;;;4940117;29;20257;-71
2021/01/29 14:09:52;;;;;;;1.40;1.20;;;0.40;99.90;;;;;;4953326;29;20209;-69
2021/01/29 14:12:28;;;;;;;1.10;1.10;;;0.40;99.90;;;;;;4957255;28;20668;-71
2021/01/29 14:15:03;;;;;;;2.15;1.98;;;0.30;99.90;;;;;;4946564;28;20214;-71
2021/01/29 14:17:36;;;;;;;2.33;1.33;;;0.30;99.90;;;;;;4949783;28;20681;-71
2021/01/29 14:20:17;;;;;;;1.35;1.35;;;0.30;99.90;;;;;;4941412;28;20291;-70
2021/01/29 14:22:56;;;;;;;1.95;1.85;;;0.40;99.90;;;;;;4939538;29;20201;-71
2021/01/29 14:25:38;;;;;;;2.33;1.70;;;0.40;99.90;;;;;;4947937;29;20208;-71
2021/01/29 14:28:13;;;;;;;1.48;1.38;;;0.30;99.90;;;;;;4943626;28;20682;-72
2021/01/29 14:30:50;;;;;;;2.95;1.63;;;0.30;99.90;;;;;;4943242;29;20551;-72
2021/01/29 14:33:30;;;;;;;1.50;1.40;;;0.30;99.90;;;;;;4941320;29;20210;-72
2021/01/29 14:36:04;;;;;;;2.55;1.80;;;0.30;99.90;;;;;;4957971;28;20216;-71
2021/01/29 14:38:56;;;;;;;1.40;1.38;;;0.30;99.90;;;;;;4960951;28;20326;-70
2021/01/29 14:41:28;;;;;;;2.30;1.95;;;0.30;99.90;;;;;;4963431;28;20343;-72
2021/01/29 14:44:08;;;;;;;6.72;1.75;;;0.30;99.90;;;;;;4962159;28;20733;-71
2021/01/29 14:46:48;;;;;;;5.25;2.60;;;0.30;99.90;;;;;;4956624;28;20672;-70
2021/01/29 14:49:38;;;;;;;2.30;2.20;;;0.30;99.90;;;;;;4943418;28;20206;-69
2021/01/29 14:52:09;;;;;;;3.95;1.58;;;0.30;99.90;;;;;;4937683;29;20233;-70
2021/01/29 14:54:38;;;;;;;1.58;1.45;;;0.30;99.90;;;;;;4939597;29;20213;-69
2021/01/29 14:57:10;;;;;;;2.05;1.83;;;0.30;99.90;;;;;;4938563;29;20716;-69
2021/01/29 14:59:42;;;;;;;1.50;1.50;;;0.30;99.90;;;;;;4938952;29;20643;-69
2021/01/29 15:02:15;;;;;;;1.92;1.83;;;0.20;99.90;;;;;;4937656;29;20245;-69
2021/01/29 15:04:43;;;;;;;2.78;1.73;;;0.20;99.90;;;;;;4938424;29;20275;-69
2021/01/29 15:07:14;;;;;;;2.15;1.92;;;0.20;99.90;;;;;;4939861;29;20206;-69
2021/01/29 15:09:46;;;;;;;1.73;1.63;;;0.20;99.90;;;;;;4936497;29;20210;-68
2021/01/29 15:12:14;;;;;;;1.30;1.30;;;0.20;99.90;;;;;;4934023;28;20688;-69
2021/01/29 15:14:50;;;;;;;1.88;1.23;;;0.20;99.90;;;;;;4936738;29;20222;-68
2021/01/29 15:17:26;;;;;;;2.55;2.10;;;0.10;99.90;;;;;;4927244;29;20230;-69
2021/01/29 15:20:05;;;;;;;1.80;1.70;;;0.10;99.90;;;;;;4935885;29;20209;-69
2021/01/29 15:22:33;;;;;;;2.58;2.45;;;0.10;99.90;;;;;;4932208;29;20217;-69
2021/01/29 15:25:20;;;;;;;1.60;1.58;;;0.10;99.90;;;;;;4936389;28;20219;-68
2021/01/29 15:27:46;;;;;;;3.08;1.80;;;0.10;99.90;;;;;;4943267;28;20190;-70
2021/01/29 15:30:35;;;;;;;2.95;2.33;;;0.10;99.90;;;;;;4948890;28;20201;-69
2021/01/29 15:33:01;;;;;;;2.38;2.28;;;0.10;99.90;;;;;;4940871;28;20662;-68
2021/01/29 15:35:34;;;;;;;2.30;2.20;;;0.10;99.90;;;;;;4946211;28;20252;-69
2021/01/29 15:38:07;;;;;;;3.00;2.65;;;0.10;99.90;;;;;;4923181;29;20691;-69
2021/01/29 15:40:51;;;;;;;2.85;2.63;;;0.10;99.90;;;;;;4928002;29;20238;-69
2021/01/29 15:43:47;;;;;;;1.50;1.40;;;0.10;99.90;;;;;;4921506;29;20298;-68
2021/01/29 15:46:45;;;;;;;1.95;1.85;;;0.00;99.90;;;;;;4935247;28;20579;-69
2021/01/29 15:49:44;;;;;;;2.28;2.03;;;0.00;99.90;;;;;;4929559;29;20217;-69
2021/01/29 15:52:13;;;;;;;2.00;1.90;;;0.00;99.90;;;;;;4935699;29;20245;-69
2021/01/29 15:54:52;;;;;;;2.35;1.83;;;0.00;99.90;;;;;;4937079;29;20257;-69
2021/01/29 15:57:25;;;;;;;1.40;1.17;;;0.00;99.90;;;;;;4948821;28;20240;-70
2021/01/29 15:59:55;;;;;;;2.42;2.28;;;0.00;99.90;;;;;;4939604;28;20194;-70
2021/01/29 16:02:46;;;;;;;2.67;2.45;;;0.00;99.90;;;;;;4951923;29;20248;-70
2021/01/29 16:05:38;;;;;;;2.63;2.20;;;0.00;99.90;;;;;;4935806;28;20523;-69
2021/01/29 16:08:27;;;;;;;2.60;2.10;;;0.00;99.90;;;;;;4945168;29;20277;-69
2021/01/29 16:11:11;;;;;;;2.80;1.77;;;0.00;99.90;;;;;;4922890;29;20290;-70
2021/01/29 16:13:37;;;;;;;1.92;1.83;;;0.00;99.90;;;;;;4936464;29;20194;-69
2021/01/29 16:16:12;;;;;;;2.60;2.40;;;0.00;99.90;;;;;;4929362;28;20214;-70
2021/01/29 16:18:48;;;;;;;3.40;2.00;;;0.00;99.90;;;;;;4948867;29;20208;-70
2021/01/29 16:21:14;;;;;;;2.65;1.88;;;0.00;99.90;;;;;;4945023;28;20285;-70
2021/01/29 16:23:43;;;;;;;1.60;1.60;;;0.00;99.90;;;;;;4951600;29;20669;-70
2021/01/29 16:26:17;;;;;;;1.80;1.80;;;0.00;99.90;;;;;;4941378;28;20220;-70
2021/01/29 16:28:46;;;;;;;2.85;2.60;;;0.00;99.90;;;;;;4948513;29;20789;-70
2021/01/29 16:31:20;;;;;;;1.90;1.80;;;0.10;99.90;;;;;;4938579;29;20226;-70
2021/01/29 16:33:47;;;;;;;2.45;2.35;;;0.10;99.90;;;;;;4920935;29;20218;-69
2021/01/29 16:36:19;;;;;;;2.65;2.45;;;0.10;99.90;;;;;;4933253;28;20222;-70
2021/01/29 16:38:48;;;;;;;2.70;2.50;;;0.10;99.90;;;;;;4936601;29;20729;-70
2021/01/29 16:41:22;;;;;;;2.83;2.25;;;0.10;99.90;;;;;;4944066;28;20230;-70
2021/01/29 16:43:48;;;;;;;2.22;2.05;;;0.10;99.90;;;;;;4943825;29;20542;-70
2021/01/29 16:46:27;;;;;;;2.60;2.50;;;0.10;99.90;;;;;;4945231;28;20213;-70
2021/01/29 16:49:15;;;;;;;2.17;2.05;;;0.10;99.90;;;;;;4943924;29;20229;-70
2021/01/29 16:51:42;;;;;;;2.40;2.30;;;0.10;99.90;;;;;;4941614;28;20376;-70
2021/01/29 16:54:09;;;;;;;8.13;3.55;;;0.10;99.90;;;;;;4936151;29;20202;-70
2021/01/29 16:56:36;;;;;;;2.63;2.50;;;0.10;99.90;;;;;;4931391;29;20237;-70
2021/01/29 16:59:06;;;;;;;3.00;2.90;;;0.10;99.90;;;;;;4942463;28;20305;-69
2021/01/29 17:01:36;;;;;;;2.72;2.47;;;0.10;99.90;;;;;;4941386;28;20615;-68
2021/01/29 17:04:05;;;;;;;2.88;2.72;;;0.10;99.90;;;;;;4937064;29;20214;-68
2021/01/29 17:06:34;;;;;;;1.98;1.90;;;0.10;99.90;;;;;;4939298;29;20209;-69
2021/01/29 17:09:13;;;;;;;2.22;2.13;;;0.10;99.90;;;;;;4940364;28;20305;-69
2021/01/29 17:11:40;;;;;;;2.47;2.28;;;0.10;99.90;;;;;;4930170;29;20229;-69
2021/01/29 17:14:11;;;;;;;2.08;1.98;;;0.10;99.90;;;;;;4951793;28;20631;-69
2021/01/29 17:16:37;;;;;;;2.30;2.20;;;0.10;99.90;;;;;;4956455;29;20225;-69
2021/01/29 17:19:10;;;;;;;2.53;2.20;;;0.10;99.90;;;;;;4942545;28;20670;-69
2021/01/29 17:21:39;;;;;;;2.50;2.30;;;0.10;99.90;;;;;;4936134;29;20234;-68
2021/01/29 17:24:07;;;;;;;2.35;2.22;;;0.10;99.90;;;;;;4929463;29;20651;-69
2021/01/29 17:26:40;;;;;;;2.47;2.03;;;0.10;99.90;;;;;;4936546;28;20574;-68
2021/01/29 17:29:11;;;;;;;2.45;2.35;;;0.00;99.90;;;;;;4935367;29;20670;-69
2021/01/29 17:31:37;;;;;;;2.60;2.40;;;0.10;99.90;;;;;;4935776;29;20289;-69
2021/01/29 17:34:09;;;;;;;2.20;2.10;;;0.10;99.90;;;;;;4927364;29;20206;-68
2021/01/29 17:36:40;;;;;;;2.70;2.60;;;0.00;99.90;;;;;;4942765;29;20273;-69
2021/01/29 17:39:28;;;;;;;3.60;3.40;;;0.00;99.90;;;;;;4932874;29;20210;-69
2021/01/29 17:42:15;;;;;;;2.67;2.47;;;0.10;99.90;;;;;;4929427;29;20222;-68
2021/01/29 17:44:49;;;;;;;2.70;2.45;;;0.10;99.90;;;;;;4954541;28;20654;-69
2021/01/29 17:47:21;;;;;;;2.67;2.58;;;0.10;99.90;;;;;;4936918;29;20210;-68
2021/01/29 17:49:48;;;;;;;3.92;2.60;;;0.10;99.90;;;;;;4937167;29;20220;-68
2021/01/29 17:52:19;;;;;;;3.90;1.92;;;0.10;99.90;;;;;;4935027;29;20237;-69
2021/01/29 17:54:47;;;;;;;3.47;3.28;;;0.10;99.90;;;;;;4938844;28;20581;-69
2021/01/29 17:57:26;;;;;;;2.47;1.98;;;0.10;99.90;;;;;;4935157;29;20356;-68
2021/01/29 17:59:58;;;;;;;3.00;2.75;;;0.00;99.90;;;;;;4936039;29;20209;-67
2021/01/29 18:02:25;;;;;;;2.80;2.58;;;0.00;99.90;;;;;;4934491;28;20292;-68
2021/01/29 18:04:57;;;;;;;2.97;2.78;;;0.10;99.90;;;;;;4952379;29;20220;-68
2021/01/29 18:07:23;;;;;;;3.03;2.60;;;0.10;99.90;;;;;;4927867;29;20198;-68
2021/01/29 18:10:10;;;;;;;3.60;3.15;;;0.10;99.90;;;;;;4934551;29;20583;-68
2021/01/29 18:12:37;;;;;;;2.42;2.17;;;0.00;99.90;;;;;;4934650;29;20214;-68
2021/01/29 18:15:10;;;;;;;2.47;2.28;;;0.00;99.90;;;;;;4935199;29;20218;-68
2021/01/29 18:17:44;;;;;;;2.75;2.65;;;0.00;99.90;;;;;;4934486;28;20728;-68
2021/01/29 18:20:25;;;;;;;3.05;2.83;;;0.00;99.90;;;;;;4924655;28;20214;-68
2021/01/29 18:22:51;;;;;;;2.53;2.42;;;0.00;99.90;;;;;;4938201;28;20208;-67
2021/01/29 18:25:18;;;;;;;2.85;2.65;;;0.10;99.90;;;;;;4953466;28;20205;-67
2021/01/29 18:27:51;;;;;;;2.47;2.38;;;0.10;99.90;;;;;;4932346;29;20214;-67
2021/01/29 18:30:19;;;;;;;2.55;2.45;;;0.10;99.90;;;;;;4932103;29;20245;-68
2021/01/29 18:32:46;;;;;;;4.38;2.97;;;0.00;99.90;;;;;;4925374;29;20207;-67
2021/01/29 18:35:13;;;;;;;2.30;2.20;;;0.10;99.90;;;;;;4935402;28;20217;-67
2021/01/29 18:37:39;;;;;;;3.50;3.20;;;0.10;99.90;;;;;;4932456;29;20249;-67
2021/01/29 18:40:07;;;;;;;3.15;2.95;;;0.10;99.90;;;;;;4934016;29;20234;-68
2021/01/29 18:42:34;;;;;;;3.30;3.00;;;0.10;99.90;;;;;;4932319;28;20217;-68
2021/01/29 18:45:00;;;;;;;2.80;2.70;;;0.00;99.90;;;;;;4934025;29;20249;-68
2021/01/29 18:47:27;;;;;;;9.40;3.60;;;0.00;99.90;;;;;;4946370;29;20209;-69
2021/01/29 18:49:53;;;;;;;3.50;3.30;;;0.00;99.90;;;;;;4937636;28;20276;-67
2021/01/29 18:52:19;;;;;;;3.20;3.00;;;0.00;99.90;;;;;;4933194;29;20240;-67
2021/01/29 18:54:46;;;;;;;3.90;3.20;;;0.00;99.90;;;;;;4928083;28;20249;-69
2021/01/29 18:57:13;;;;;;;2.95;2.60;;;0.00;99.90;;;;;;4933196;29;20222;-69